Alpena, Michigan
Current Conditions -  °F | °C
As of 4:24 AM on Friday 31 Oct 2014 (Local Time) from KAPN Reporting Station
Overcast Overcast  
Wind Chill: 40°   Ceiling: 4900
Heat Index: 40°   Visibility: 10mi
Dew Point: 38°   Wind: 3mph
Humidity: 93%   Direction: 290°WNW
Pressure: 29.88"   Gusts: NA
Location:  45.06°N, 83.44°W
Report Text: KAPN 310824Z AUTO 29003KT 10SM FEW016 BKN049 OVC060 04/03 A2988 RMK AO2 RAE06 P0000 T00440033 TSNO
Loading
Personal Weather Stations






























Interactive Weather Map New forecast layout! Learn more

10-Day Weather Forecast

Advertisements
Track Severe Weather on mobile